createdAt,value
2018-07-02T00:00:38.508Z,985.37
2018-07-02T00:01:45.290Z,985.35
2018-07-02T00:02:52.159Z,985.37
2018-07-02T00:03:58.934Z,985.36
2018-07-02T00:05:05.787Z,985.36
2018-07-02T00:06:12.823Z,985.35
2018-07-02T00:07:19.820Z,985.34
2018-07-02T00:08:26.645Z,985.31
2018-07-02T00:09:33.429Z,985.33
2018-07-02T00:10:40.192Z,985.33
2018-07-02T00:11:46.942Z,985.29
2018-07-02T00:12:53.686Z,985.25
2018-07-02T00:14:00.480Z,985.24
2018-07-02T00:15:07.230Z,985.29
2018-07-02T00:16:13.966Z,985.29
2018-07-02T00:17:20.690Z,985.30
2018-07-02T00:18:27.476Z,985.21
2018-07-02T00:19:34.242Z,985.18
2018-07-02T00:20:41.074Z,985.21
2018-07-02T00:21:47.914Z,985.21
2018-07-02T00:22:54.810Z,985.29
2018-07-02T00:24:01.699Z,985.18
2018-07-02T00:25:08.510Z,985.19
2018-07-02T00:26:15.321Z,985.21
2018-07-02T00:27:22.102Z,985.22
2018-07-02T00:28:28.912Z,985.18
2018-07-02T00:29:35.703Z,985.27
2018-07-02T00:30:42.540Z,985.23
2018-07-02T00:31:49.375Z,985.19
2018-07-02T00:32:56.350Z,985.19
2018-07-02T00:34:03.102Z,985.30
2018-07-02T00:35:10.008Z,985.22
2018-07-02T00:36:16.819Z,985.19
2018-07-02T00:37:23.578Z,985.29
2018-07-02T00:38:30.379Z,985.32
2018-07-02T00:39:37.157Z,985.32
2018-07-02T00:40:43.942Z,985.41
2018-07-02T00:41:50.770Z,985.31
2018-07-02T00:42:57.623Z,985.28
2018-07-02T00:44:04.533Z,985.26
2018-07-02T00:45:11.375Z,985.26
2018-07-02T00:46:18.290Z,985.24
2018-07-02T00:47:25.387Z,985.23
2018-07-02T00:48:32.234Z,985.31
2018-07-02T00:49:39.182Z,985.28
2018-07-02T00:50:45.946Z,985.32
2018-07-02T00:51:52.792Z,985.30
2018-07-02T00:52:59.600Z,985.28
2018-07-02T00:54:06.336Z,985.38
2018-07-02T00:55:13.135Z,985.35
2018-07-02T00:56:19.966Z,985.38
2018-07-02T00:57:27.145Z,985.40
2018-07-02T00:58:34.015Z,985.37
2018-07-02T00:59:40.854Z,985.39
2018-07-02T01:00:47.602Z,985.39
2018-07-02T01:01:54.409Z,985.33
2018-07-02T01:03:01.455Z,985.34
2018-07-02T01:04:08.377Z,985.40
2018-07-02T01:05:15.138Z,985.48
2018-07-02T01:06:21.910Z,985.46
2018-07-02T01:07:28.792Z,985.46
2018-07-02T01:08:35.590Z,985.48
2018-07-02T01:09:42.331Z,985.55
2018-07-02T01:10:49.081Z,985.58
2018-07-02T01:11:55.882Z,985.50
2018-07-02T01:13:02.613Z,985.51
2018-07-02T01:14:09.689Z,985.49
2018-07-02T01:15:16.460Z,985.43
2018-07-02T01:16:23.292Z,985.45
2018-07-02T01:17:30.074Z,985.47
2018-07-02T01:18:36.858Z,985.40
2018-07-02T01:19:43.667Z,985.46
2018-07-02T01:20:50.454Z,985.47
2018-07-02T01:21:57.207Z,985.43
2018-07-02T01:23:04.013Z,985.46
2018-07-02T01:24:10.782Z,985.53
2018-07-02T01:25:17.610Z,985.47
2018-07-02T01:26:24.394Z,985.51
2018-07-02T01:27:31.176Z,985.42
2018-07-02T01:28:37.940Z,985.47
2018-07-02T01:29:44.758Z,985.49
2018-07-02T01:30:51.534Z,985.50
2018-07-02T01:31:58.298Z,985.49
2018-07-02T01:33:05.119Z,985.52
2018-07-02T01:34:11.885Z,985.53
2018-07-02T01:35:18.622Z,985.65
2018-07-02T01:36:25.384Z,985.58
2018-07-02T01:37:32.138Z,985.55
2018-07-02T01:38:38.850Z,985.48
2018-07-02T01:39:45.586Z,985.49
2018-07-02T01:40:52.314Z,985.57
2018-07-02T01:41:59.165Z,985.53
2018-07-02T01:43:05.967Z,985.54
2018-07-02T01:44:12.731Z,985.58
2018-07-02T01:45:19.552Z,985.50
2018-07-02T01:46:26.339Z,985.63
2018-07-02T01:47:33.091Z,985.61
2018-07-02T01:48:39.946Z,985.58
2018-07-02T01:49:46.719Z,985.52
2018-07-02T01:50:53.522Z,985.51
2018-07-02T01:52:00.358Z,985.62
2018-07-02T01:53:07.187Z,985.60
2018-07-02T01:54:14.082Z,985.66
2018-07-02T01:55:20.867Z,985.62
2018-07-02T01:56:27.715Z,985.57
2018-07-02T01:57:34.586Z,985.58
2018-07-02T01:58:41.334Z,985.66
2018-07-02T01:59:48.055Z,985.62
2018-07-02T02:00:54.906Z,985.64
2018-07-02T02:02:01.734Z,985.59
2018-07-02T02:03:08.643Z,985.63
2018-07-02T02:04:15.390Z,985.54
2018-07-02T02:05:22.151Z,985.58
2018-07-02T02:06:29.038Z,985.46
2018-07-02T02:07:35.973Z,985.51
2018-07-02T02:08:43.022Z,985.46
2018-07-02T02:09:49.895Z,985.46
2018-07-02T02:10:56.742Z,985.39
2018-07-02T02:12:03.487Z,985.47
2018-07-02T02:13:10.341Z,985.47
2018-07-02T02:14:17.076Z,985.44
2018-07-02T02:15:23.827Z,985.43
2018-07-02T02:16:30.605Z,985.40
2018-07-02T02:17:37.418Z,985.39
2018-07-02T02:18:44.222Z,985.36
2018-07-02T02:19:51.078Z,985.31
2018-07-02T02:20:57.815Z,985.30
2018-07-02T02:22:04.614Z,985.28
2018-07-02T02:23:11.475Z,985.25
2018-07-02T02:24:18.247Z,985.28
2018-07-02T02:25:30.209Z,985.17
2018-07-02T02:26:31.990Z,985.23
2018-07-02T02:27:38.736Z,985.22
2018-07-02T02:28:45.557Z,985.22
2018-07-02T02:29:52.346Z,985.23
2018-07-02T02:30:59.111Z,985.24
2018-07-02T02:32:05.884Z,985.23
2018-07-02T02:33:12.663Z,985.23
2018-07-02T02:34:19.505Z,985.23
2018-07-02T02:35:26.275Z,985.27
2018-07-02T02:36:33.110Z,985.17
2018-07-02T02:37:39.947Z,985.21
2018-07-02T02:38:46.794Z,985.16
2018-07-02T02:39:53.568Z,985.16
2018-07-02T02:41:00.318Z,985.20
2018-07-02T02:42:07.151Z,985.23
2018-07-02T02:43:13.949Z,985.17
2018-07-02T02:44:20.800Z,985.18
2018-07-02T02:45:27.552Z,985.20
2018-07-02T02:46:34.335Z,985.25
2018-07-02T02:47:41.102Z,985.20
2018-07-02T02:48:47.923Z,985.22
2018-07-02T02:49:54.663Z,985.20
2018-07-02T02:51:01.443Z,985.17
2018-07-02T02:52:08.280Z,985.23
2018-07-02T02:53:15.076Z,985.13
2018-07-02T02:54:22.064Z,985.11
2018-07-02T02:55:28.882Z,985.12
2018-07-02T02:56:35.706Z,985.20
2018-07-02T02:57:42.646Z,985.17
2018-07-02T02:58:49.391Z,985.21
2018-07-02T02:59:56.526Z,985.18
2018-07-02T03:01:03.311Z,985.21
2018-07-02T03:02:10.071Z,985.24
2018-07-02T03:03:16.805Z,985.26
2018-07-02T03:04:23.602Z,985.32
2018-07-02T03:05:30.481Z,985.35
2018-07-02T03:06:37.249Z,985.35
2018-07-02T03:07:44.085Z,985.36
2018-07-02T03:08:50.847Z,985.33
2018-07-02T03:09:57.615Z,985.35
2018-07-02T03:11:04.506Z,985.40
2018-07-02T03:12:11.306Z,985.38
2018-07-02T03:13:18.159Z,985.35
2018-07-02T03:14:25.008Z,985.39
2018-07-02T03:15:31.854Z,985.33
2018-07-02T03:16:38.684Z,985.37
2018-07-02T03:17:45.495Z,985.37
2018-07-02T03:18:52.434Z,985.38
2018-07-02T03:19:59.228Z,985.41
2018-07-02T03:21:06.139Z,985.33
2018-07-02T03:22:13.148Z,985.32
2018-07-02T03:23:19.990Z,985.44
2018-07-02T03:24:26.774Z,985.34
2018-07-02T03:25:33.598Z,985.33
2018-07-02T03:26:40.388Z,985.31
2018-07-02T03:27:47.279Z,985.31
2018-07-02T03:28:53.999Z,985.33
2018-07-02T03:30:00.839Z,985.36
2018-07-02T03:31:07.905Z,985.33
2018-07-02T03:32:14.909Z,985.25
2018-07-02T03:33:21.662Z,985.39
2018-07-02T03:34:28.449Z,985.44
2018-07-02T03:35:35.259Z,985.37
2018-07-02T03:36:42.088Z,985.41
2018-07-02T03:37:48.959Z,985.43
2018-07-02T03:38:55.862Z,985.41
2018-07-02T03:40:02.758Z,985.45
2018-07-02T03:41:09.597Z,985.42
2018-07-02T03:42:16.362Z,985.39
2018-07-02T03:43:23.148Z,985.41
2018-07-02T03:44:29.982Z,985.48
2018-07-02T03:45:36.771Z,985.47
2018-07-02T03:46:43.534Z,985.48
2018-07-02T03:47:50.359Z,985.52
2018-07-02T03:48:57.127Z,985.52
2018-07-02T03:50:03.926Z,985.58
2018-07-02T03:51:10.770Z,985.58
2018-07-02T03:52:17.516Z,985.57
2018-07-02T03:53:24.275Z,985.54
2018-07-02T03:54:31.154Z,985.55
2018-07-02T03:55:37.910Z,985.58
2018-07-02T03:56:44.786Z,985.56
2018-07-02T03:57:51.582Z,985.58
2018-07-02T03:58:58.319Z,985.60
2018-07-02T04:00:05.346Z,985.62
2018-07-02T04:01:11.935Z,985.72
2018-07-02T04:02:18.695Z,985.68
2018-07-02T04:03:25.455Z,985.68
2018-07-02T04:04:32.291Z,985.65
2018-07-02T04:05:39.075Z,985.75
2018-07-02T04:06:45.933Z,985.69
2018-07-02T04:07:52.807Z,985.68
2018-07-02T04:08:59.522Z,985.72
2018-07-02T04:10:06.307Z,985.66
2018-07-02T04:11:13.035Z,985.70
2018-07-02T04:12:19.840Z,985.63
2018-07-02T04:13:26.641Z,985.67
2018-07-02T04:14:33.460Z,985.63
2018-07-02T04:15:40.235Z,985.65
2018-07-02T04:16:47.046Z,985.60
2018-07-02T04:17:53.797Z,985.56
2018-07-02T04:19:00.630Z,985.57
2018-07-02T04:20:07.543Z,985.52
2018-07-02T04:21:14.418Z,985.53
2018-07-02T04:22:21.282Z,985.53
2018-07-02T04:23:28.075Z,985.57
2018-07-02T04:24:34.870Z,985.51
2018-07-02T04:25:41.698Z,985.50
2018-07-02T04:26:48.450Z,985.55
2018-07-02T04:27:55.198Z,985.52
2018-07-02T04:29:01.998Z,985.56
2018-07-02T04:30:09.015Z,985.51
2018-07-02T04:31:15.763Z,985.53
2018-07-02T04:32:22.494Z,985.51
2018-07-02T04:33:29.295Z,985.50
2018-07-02T04:34:36.055Z,985.55
2018-07-02T04:35:42.790Z,985.53
2018-07-02T04:36:49.601Z,985.57
2018-07-02T04:37:56.371Z,985.62
2018-07-02T04:39:03.444Z,985.61
2018-07-02T04:40:09.850Z,985.56
2018-07-02T04:41:16.614Z,985.62
2018-07-02T04:42:23.414Z,985.55
2018-07-02T04:43:30.210Z,985.62
2018-07-02T04:44:36.962Z,985.59
2018-07-02T04:45:43.678Z,985.60
2018-07-02T04:46:50.427Z,985.60
2018-07-02T04:47:57.218Z,985.62
2018-07-02T04:49:04.231Z,985.55
2018-07-02T04:50:10.986Z,985.63
2018-07-02T04:51:17.797Z,985.59
2018-07-02T04:52:24.707Z,985.53
2018-07-02T04:53:31.479Z,985.56
2018-07-02T04:54:38.263Z,985.57
2018-07-02T04:55:45.092Z,985.53
2018-07-02T04:56:51.871Z,985.56
2018-07-02T04:57:58.637Z,985.51
2018-07-02T04:59:05.481Z,985.47
2018-07-02T05:00:12.259Z,985.60
2018-07-02T05:01:19.023Z,985.55
2018-07-02T05:02:25.851Z,985.60
2018-07-02T05:03:32.780Z,985.55
2018-07-02T05:04:39.578Z,985.59
2018-07-02T05:05:46.305Z,985.51
2018-07-02T05:06:53.090Z,985.46
2018-07-02T05:07:59.863Z,985.50
2018-07-02T05:09:06.656Z,985.56
2018-07-02T05:10:13.362Z,985.51
2018-07-02T05:11:20.135Z,985.57
2018-07-02T05:12:26.854Z,985.54
2018-07-02T05:13:33.643Z,985.58
2018-07-02T05:14:40.427Z,985.59
2018-07-02T05:15:47.406Z,985.69
2018-07-02T05:16:54.177Z,985.59
2018-07-02T05:18:00.943Z,985.60
2018-07-02T05:19:07.863Z,985.63
2018-07-02T05:20:14.587Z,985.60
2018-07-02T05:21:21.336Z,985.52
2018-07-02T05:22:28.433Z,985.53
2018-07-02T05:23:35.254Z,985.59
2018-07-02T05:24:41.998Z,985.60
2018-07-02T05:25:48.785Z,985.63
2018-07-02T05:26:55.492Z,985.71
2018-07-02T05:28:02.471Z,985.64
2018-07-02T05:29:09.229Z,985.64
2018-07-02T05:30:16.040Z,985.68
2018-07-02T05:31:22.793Z,985.64
2018-07-02T05:32:29.650Z,985.66
2018-07-02T05:33:36.407Z,985.65
2018-07-02T05:34:43.189Z,985.62
2018-07-02T05:35:49.921Z,985.65
2018-07-02T05:36:56.751Z,985.56
2018-07-02T05:38:03.490Z,985.61
2018-07-02T05:39:10.318Z,985.65
2018-07-02T05:40:17.270Z,985.57
2018-07-02T05:41:24.003Z,985.63
2018-07-02T05:42:30.775Z,985.66
2018-07-02T05:43:37.503Z,985.65
2018-07-02T05:44:44.294Z,985.60
2018-07-02T05:45:51.045Z,985.62
2018-07-02T05:46:57.730Z,985.67
2018-07-02T05:48:04.498Z,985.66
2018-07-02T05:49:11.231Z,985.70
2018-07-02T05:50:17.974Z,985.71
2018-07-02T05:51:24.711Z,985.72
2018-07-02T05:52:31.514Z,985.72
2018-07-02T05:53:38.214Z,985.69
2018-07-02T05:54:44.951Z,985.65
2018-07-02T05:55:52.082Z,985.65
2018-07-02T05:56:58.586Z,985.65
2018-07-02T05:58:05.343Z,985.63
2018-07-02T05:59:12.054Z,985.61
2018-07-02T06:00:18.826Z,985.65
2018-07-02T06:01:25.573Z,985.66
2018-07-02T06:02:32.276Z,985.59
2018-07-02T06:03:39.291Z,985.62
2018-07-02T06:04:46.019Z,985.61
2018-07-02T06:05:52.782Z,985.53
2018-07-02T06:06:59.533Z,985.55
2018-07-02T06:08:06.360Z,985.56
2018-07-02T06:09:13.104Z,985.51
2018-07-02T06:10:19.898Z,985.54
2018-07-02T06:11:26.755Z,985.63
2018-07-02T06:12:33.590Z,985.59
2018-07-02T06:13:40.471Z,985.58
2018-07-02T06:14:47.215Z,985.59
2018-07-02T06:15:53.994Z,985.56
2018-07-02T06:17:00.831Z,985.63
2018-07-02T06:18:07.650Z,985.68
2018-07-02T06:19:14.583Z,985.64
2018-07-02T06:20:21.370Z,985.67
2018-07-02T06:21:28.177Z,985.68
2018-07-02T06:22:34.996Z,985.71
2018-07-02T06:23:41.771Z,985.74
2018-07-02T06:24:48.523Z,985.76
2018-07-02T06:25:55.239Z,985.83
2018-07-02T06:27:02.041Z,985.87
2018-07-02T06:28:08.909Z,985.83
2018-07-02T06:29:16.032Z,985.82
2018-07-02T06:30:22.884Z,985.91
2018-07-02T06:31:29.662Z,985.92
2018-07-02T06:32:36.398Z,985.95
2018-07-02T06:33:43.078Z,985.95
2018-07-02T06:34:49.854Z,985.95
2018-07-02T06:35:56.567Z,985.86
2018-07-02T06:37:04.964Z,985.88
2018-07-02T06:38:10.322Z,985.86
2018-07-02T06:39:17.128Z,985.81
2018-07-02T06:40:23.818Z,985.85
2018-07-02T06:41:30.526Z,985.88
2018-07-02T06:42:37.280Z,985.88
2018-07-02T06:43:44.084Z,985.88
2018-07-02T06:44:50.866Z,985.89
2018-07-02T06:45:57.651Z,985.83
2018-07-02T06:47:04.450Z,985.87
2018-07-02T06:48:11.197Z,985.90
2018-07-02T06:49:18.322Z,985.87
2018-07-02T06:50:25.176Z,985.90
2018-07-02T06:51:32.275Z,985.95
2018-07-02T06:52:39.147Z,985.83
2018-07-02T06:53:46.162Z,985.87
2018-07-02T06:54:52.958Z,985.80
2018-07-02T06:56:00.839Z,985.80
2018-07-02T06:57:06.602Z,985.80
2018-07-02T06:58:13.327Z,985.80
2018-07-02T06:59:20.036Z,985.80
2018-07-02T07:00:26.862Z,985.79
2018-07-02T07:01:33.818Z,985.86
2018-07-02T07:02:40.664Z,985.82
2018-07-02T07:03:47.422Z,985.84
2018-07-02T07:04:54.702Z,985.81
2018-07-02T07:06:01.068Z,985.81
2018-07-02T07:07:07.963Z,985.81
2018-07-02T07:08:15.376Z,985.84
2018-07-02T07:09:21.823Z,985.76
2018-07-02T07:10:29.086Z,985.85
2018-07-02T07:11:35.645Z,985.87
2018-07-02T07:12:42.452Z,985.85
2018-07-02T07:13:49.311Z,985.92
2018-07-02T07:14:56.091Z,985.77
2018-07-02T07:16:03.148Z,985.87
2018-07-02T07:17:09.958Z,985.85
2018-07-02T07:18:16.903Z,985.96
2018-07-02T07:19:23.706Z,985.93
2018-07-02T07:20:30.713Z,985.80
2018-07-02T07:21:37.548Z,985.88
2018-07-02T07:22:44.415Z,985.84
2018-07-02T07:23:51.140Z,985.79
2018-07-02T07:24:57.914Z,985.86
2018-07-02T07:26:04.827Z,985.83
2018-07-02T07:27:12.100Z,985.73
2018-07-02T07:28:18.570Z,985.73
2018-07-02T07:29:27.365Z,985.75
2018-07-02T07:30:32.247Z,985.72
2018-07-02T07:31:39.123Z,985.72
2018-07-02T07:32:46.565Z,985.72
2018-07-02T07:33:53.051Z,985.70
2018-07-02T07:34:59.996Z,985.68
2018-07-02T07:36:06.892Z,985.78
2018-07-02T07:37:16.693Z,985.77
2018-07-02T07:38:23.647Z,985.78
2018-07-02T07:39:30.715Z,985.88
2018-07-02T07:40:37.980Z,985.93
2018-07-02T07:41:44.520Z,985.89
2018-07-02T07:42:51.891Z,985.86
2018-07-02T07:43:59.467Z,985.85
2018-07-02T07:45:05.196Z,985.85
2018-07-02T07:46:12.388Z,985.88
2018-07-02T07:47:22.643Z,985.90
2018-07-02T07:48:27.223Z,985.81
2018-07-02T07:49:33.951Z,985.84
2018-07-02T07:50:40.691Z,985.88
2018-07-02T07:52:54.738Z,985.91
2018-07-02T07:54:00.827Z,985.88
2018-07-02T07:55:09.160Z,985.93
2018-07-02T07:56:14.472Z,985.93
2018-07-02T07:57:21.294Z,985.92
2018-07-02T07:58:31.694Z,985.99
2018-07-02T07:59:35.383Z,985.95
2018-07-02T08:00:43.737Z,985.92
2018-07-02T08:01:48.907Z,985.92
2018-07-02T08:02:55.695Z,985.98
2018-07-02T08:04:02.876Z,986.01
2018-07-02T08:05:09.869Z,986.06
2018-07-02T08:06:16.647Z,986.01
2018-07-02T08:07:24.369Z,986.06
2018-07-02T08:08:31.290Z,986.12
2018-07-02T08:09:37.068Z,986.08
2018-07-02T08:10:43.965Z,986.08
2018-07-02T08:11:50.843Z,986.03
2018-07-02T08:12:57.604Z,986.01
2018-07-02T08:14:04.364Z,986.02
2018-07-02T08:15:11.847Z,985.96
2018-07-02T08:16:18.168Z,985.99
2018-07-02T08:17:25.140Z,986.14
2018-07-02T08:18:32.980Z,986.01
2018-07-02T08:19:39.003Z,986.12
2018-07-02T08:20:45.822Z,986.05
2018-07-02T08:22:01.204Z,985.93
2018-07-02T08:22:59.550Z,985.98
2018-07-02T08:24:06.707Z,985.95
2018-07-02T08:25:14.707Z,985.93
2018-07-02T08:26:21.268Z,985.90
2018-07-02T08:27:30.763Z,985.96
2018-07-02T08:28:35.291Z,985.99
2018-07-02T08:29:41.580Z,986.00
2018-07-02T08:30:48.220Z,985.88
2018-07-02T08:31:56.235Z,985.89
2018-07-02T08:33:02.119Z,985.89
2018-07-02T08:34:09.385Z,985.81
2018-07-02T08:35:17.072Z,985.82
2018-07-02T08:36:23.326Z,985.88
2018-07-02T08:37:31.532Z,985.93
2018-07-02T08:38:36.913Z,985.81
2018-07-02T08:39:43.707Z,985.85
2018-07-02T08:40:52.267Z,985.82
2018-07-02T08:41:57.646Z,985.83
2018-07-02T08:43:07.282Z,985.83
2018-07-02T08:46:36.013Z,985.78
2018-07-02T08:47:42.959Z,985.88
2018-07-02T08:48:50.786Z,985.90
2018-07-02T08:49:59.595Z,985.88
2018-07-02T08:51:04.865Z,985.95
2018-07-02T08:52:10.733Z,985.87
2018-07-02T08:53:19.792Z,985.86
2018-07-02T08:54:24.712Z,985.79
2018-07-02T08:55:31.453Z,985.85
2018-07-02T08:56:41.232Z,985.69
2018-07-02T09:01:46.791Z,985.76
2018-07-02T09:02:53.690Z,985.77
2018-07-02T09:04:00.507Z,985.81
2018-07-02T09:05:07.972Z,985.89
2018-07-02T09:06:17.648Z,985.84
2018-07-02T09:07:27.113Z,985.88
2018-07-02T09:08:33.572Z,985.91
2018-07-02T09:09:35.657Z,985.88
2018-07-02T09:11:50.488Z,985.87
2018-07-02T09:12:56.406Z,985.85
2018-07-02T09:14:03.260Z,985.96
2018-07-02T09:15:10.236Z,985.91
2018-07-02T09:16:17.671Z,986.03
2018-07-02T09:17:24.258Z,986.09
2018-07-02T09:18:30.812Z,986.07
2018-07-02T09:19:37.905Z,986.00
2018-07-02T09:20:50.204Z,986.06
2018-07-02T09:21:51.899Z,985.98
2018-07-02T09:22:58.886Z,986.14
2018-07-02T09:24:05.504Z,986.09
2018-07-02T09:25:12.747Z,986.07
2018-07-02T09:26:19.332Z,986.05
2018-07-02T09:27:26.163Z,986.07
2018-07-02T09:28:34.767Z,986.07
2018-07-02T09:29:39.736Z,986.14
2018-07-02T09:31:53.944Z,986.03
2018-07-02T09:33:00.352Z,986.05
2018-07-02T09:34:11.481Z,985.96
2018-07-02T09:35:13.982Z,986.03
2018-07-02T09:36:23.220Z,985.93
2018-07-02T09:37:27.631Z,985.94
2018-07-02T09:38:34.704Z,985.83
2018-07-02T09:39:41.206Z,985.98
2018-07-02T09:40:48.092Z,986.04
2018-07-02T09:41:56.604Z,986.01
2018-07-02T09:43:06.741Z,985.97
2018-07-02T09:44:10.031Z,986.11
2018-07-02T09:45:15.814Z,986.13
2018-07-02T09:46:22.656Z,986.06
2018-07-02T09:47:29.559Z,986.10
2018-07-02T09:48:36.575Z,986.02
2018-07-02T09:49:44.959Z,985.97
2018-07-02T09:50:50.297Z,986.13
2018-07-02T09:51:57.674Z,986.13
2018-07-02T09:53:07.828Z,986.14
2018-07-02T09:54:11.627Z,986.11
2018-07-02T09:55:18.483Z,986.05
2018-07-02T09:56:30.150Z,986.02
2018-07-02T09:57:32.271Z,986.02
2018-07-02T09:58:39.491Z,986.03
2018-07-02T09:59:50.235Z,986.06
2018-07-02T10:00:53.111Z,986.17
2018-07-02T10:01:59.992Z,986.19
2018-07-02T10:03:06.765Z,986.15
2018-07-02T10:04:13.768Z,986.12
2018-07-02T10:05:20.634Z,986.03
2018-07-02T10:06:28.996Z,986.04
2018-07-02T10:08:44.760Z,986.07
2018-07-02T10:09:51.468Z,986.03
2018-07-02T10:10:58.212Z,986.16
2018-07-02T10:12:06.892Z,986.11
2018-07-02T10:13:11.698Z,986.10
2018-07-02T10:14:18.491Z,986.11
2018-07-02T10:15:25.342Z,986.08
2018-07-02T10:16:32.457Z,986.03
2018-07-02T10:17:40.023Z,986.05
2018-07-02T10:18:45.875Z,986.12
2018-07-02T10:19:53.195Z,986.10
2018-07-02T10:21:01.131Z,986.07
2018-07-02T10:22:07.515Z,986.10
2018-07-02T10:23:13.642Z,986.09
2018-07-02T10:24:20.685Z,986.10
2018-07-02T10:25:28.448Z,986.09
2018-07-02T10:26:34.278Z,986.10
2018-07-02T10:27:41.073Z,986.03
2018-07-02T10:28:47.906Z,986.07
2018-07-02T10:29:54.991Z,986.16
2018-07-02T10:31:01.976Z,986.07
2018-07-02T10:32:08.792Z,985.97
2018-07-02T10:33:15.505Z,985.98
2018-07-02T10:34:22.377Z,985.93
2018-07-02T10:35:30.934Z,985.99
2018-07-02T10:36:36.370Z,986.02
2018-07-02T10:37:44.433Z,985.99
2018-07-02T10:38:50.514Z,986.02
2018-07-02T10:39:58.447Z,985.89
2018-07-02T10:41:04.156Z,986.00
2018-07-02T10:42:16.141Z,985.99
2018-07-02T10:43:18.017Z,985.94
2018-07-02T10:44:25.544Z,985.98
2018-07-02T10:45:31.842Z,985.95
2018-07-02T10:46:39.609Z,985.96
2018-07-02T10:47:45.673Z,985.90
2018-07-02T10:48:56.056Z,985.92
2018-07-02T10:50:02.264Z,986.01
2018-07-02T10:51:06.659Z,986.05
2018-07-02T10:52:13.539Z,985.99
2018-07-02T10:54:28.550Z,985.99
2018-07-02T10:55:35.806Z,986.06
2018-07-02T10:56:41.339Z,986.07
2018-07-02T10:57:48.339Z,986.07
2018-07-02T10:58:57.050Z,986.12
2018-07-02T11:00:02.008Z,986.09
2018-07-02T11:01:09.719Z,986.12
2018-07-02T11:02:16.190Z,986.09
2018-07-02T11:03:23.198Z,986.11
2018-07-02T11:04:30.712Z,986.12
2018-07-02T11:05:37.188Z,986.05
2018-07-02T11:06:45.652Z,986.14
2018-07-02T11:07:51.145Z,986.10
2018-07-02T11:08:58.518Z,986.16
2018-07-02T11:10:05.111Z,986.09
2018-07-02T11:11:11.579Z,986.09
2018-07-02T11:12:18.452Z,986.24
2018-07-02T11:13:27.493Z,986.22
2018-07-02T11:15:39.519Z,986.14
2018-07-02T11:16:47.634Z,986.12
2018-07-02T11:17:58.096Z,986.05
2018-07-02T11:19:00.411Z,986.15
2018-07-02T11:20:08.689Z,986.18
2018-07-02T11:21:13.949Z,986.09
2018-07-02T11:22:21.798Z,986.09
2018-07-02T11:23:49.427Z,986.10
2018-07-02T11:24:56.931Z,986.08
2018-07-02T11:26:04.589Z,986.11
2018-07-02T11:27:10.429Z,986.09
2018-07-02T11:28:23.541Z,986.09
2018-07-02T11:30:31.121Z,986.09
2018-07-02T11:31:38.588Z,986.14
2018-07-02T11:32:45.043Z,986.02
2018-07-02T11:33:51.887Z,986.10
2018-07-02T11:35:04.022Z,986.10
2018-07-02T11:36:16.786Z,986.03
2018-07-02T11:37:19.462Z,986.01
2018-07-02T11:38:25.477Z,986.02
2018-07-02T11:39:38.548Z,985.96
2018-07-02T11:40:39.235Z,985.93
2018-07-02T11:41:46.079Z,985.88
2018-07-02T11:42:52.891Z,985.91
2018-07-02T11:43:59.761Z,985.88
2018-07-02T11:45:06.487Z,985.99
2018-07-02T11:46:13.246Z,985.97
2018-07-02T11:47:20.045Z,986.00
2018-07-02T11:48:26.922Z,985.90
2018-07-02T11:49:33.738Z,985.93
2018-07-02T11:50:42.530Z,985.86
2018-07-02T11:51:49.727Z,985.98
2018-07-02T11:52:54.135Z,985.91
2018-07-02T11:54:01.272Z,985.90
2018-07-02T11:55:14.460Z,985.83
2018-07-02T11:57:22.136Z,985.81
2018-07-02T11:58:29.081Z,985.97
2018-07-02T11:59:36.137Z,985.84
2018-07-02T12:00:49.226Z,985.75
2018-07-02T12:30:51.745Z,985.80
2018-07-02T12:31:59.955Z,985.74
2018-07-02T12:33:05.740Z,985.76
2018-07-02T12:34:17.477Z,985.82
2018-07-02T12:37:17.857Z,985.74
2018-07-02T12:38:24.755Z,985.75
2018-07-02T12:39:32.408Z,985.79
2018-07-02T12:40:38.308Z,985.77
2018-07-02T12:44:17.973Z,985.75
2018-07-02T12:45:52.959Z,985.74
2018-07-02T12:46:52.373Z,985.69
2018-07-02T12:47:57.452Z,985.64
2018-07-02T12:49:04.148Z,985.72
2018-07-02T12:50:11.051Z,985.69
2018-07-02T12:51:17.933Z,985.71
2018-07-02T12:52:24.884Z,985.66
2018-07-02T12:53:31.656Z,985.60
2018-07-02T12:54:38.455Z,985.65
2018-07-02T12:55:45.348Z,985.61
2018-07-02T12:56:52.358Z,985.63
2018-07-02T12:57:59.226Z,985.65
2018-07-02T12:59:06.023Z,985.59
2018-07-02T13:00:12.924Z,985.49
2018-07-02T13:01:19.695Z,985.54
2018-07-02T13:02:26.495Z,985.62
2018-07-02T13:05:47.064Z,985.51
2018-07-02T13:06:53.991Z,985.46
2018-07-02T13:08:00.829Z,985.51
2018-07-02T13:09:07.787Z,985.41
2018-07-02T13:10:18.903Z,985.45
2018-07-02T13:11:21.833Z,985.43
2018-07-02T13:12:28.700Z,985.49
2018-07-02T13:13:35.539Z,985.50
2018-07-02T13:14:42.390Z,985.48
2018-07-02T13:15:53.039Z,985.41
2018-07-02T13:16:55.887Z,985.41
2018-07-02T13:18:02.870Z,985.36
2018-07-02T13:19:09.818Z,985.33
2018-07-02T13:20:17.872Z,985.34
2018-07-02T13:21:30.262Z,985.35
2018-07-02T13:22:36.940Z,985.31
2018-07-02T13:23:43.695Z,985.27
2018-07-02T13:24:50.489Z,985.29
2018-07-02T13:25:57.519Z,985.41
2018-07-02T13:27:04.326Z,985.51
2018-07-02T13:28:11.297Z,985.30
2018-07-02T13:29:18.646Z,985.42
2018-07-02T13:30:25.218Z,985.39
2018-07-02T13:31:32.329Z,985.40
2018-07-02T13:32:39.257Z,985.46
2018-07-02T13:33:46.265Z,985.46
2018-07-02T13:34:53.018Z,985.51
2018-07-02T13:35:59.730Z,985.43
2018-07-02T13:37:06.802Z,985.47
2018-07-02T13:38:13.726Z,985.45
2018-07-02T13:39:20.549Z,985.37
2018-07-02T13:40:28.018Z,985.33
2018-07-02T13:41:34.734Z,985.28
2018-07-02T13:42:43.584Z,985.34
2018-07-02T13:43:48.244Z,985.38
2018-07-02T13:44:55.283Z,985.33
2018-07-02T13:46:01.696Z,985.30
2018-07-02T13:47:08.851Z,985.29
2018-07-02T13:48:15.845Z,985.27
2018-07-02T13:49:22.277Z,985.23
2018-07-02T13:50:32.499Z,985.19
2018-07-02T13:51:35.864Z,985.23
2018-07-02T13:52:43.688Z,985.20
2018-07-02T13:53:49.591Z,985.22
2018-07-02T13:54:56.391Z,985.22
2018-07-02T13:56:06.828Z,985.26
2018-07-02T13:57:17.356Z,985.25
2018-07-02T13:58:17.579Z,985.36
2018-07-02T13:59:24.661Z,985.30
2018-07-02T14:00:53.123Z,985.35
2018-07-02T14:02:00.166Z,985.40
2018-07-02T14:03:07.031Z,985.40
2018-07-02T14:04:13.943Z,985.45
2018-07-02T14:05:20.782Z,985.40
2018-07-02T14:06:27.586Z,985.50
2018-07-02T14:07:34.577Z,985.45
2018-07-02T14:08:41.176Z,985.49
2018-07-02T14:09:48.386Z,985.46
2018-07-02T14:10:54.768Z,985.46
2018-07-02T14:12:01.704Z,985.47
2018-07-02T14:13:08.703Z,985.41
2018-07-02T14:14:15.537Z,985.46
2018-07-02T14:15:22.359Z,985.43
2018-07-02T14:16:29.290Z,985.43
2018-07-02T14:17:36.131Z,985.37
2018-07-02T14:18:42.776Z,985.39
2018-07-02T14:19:49.875Z,985.44
2018-07-02T14:20:56.747Z,985.37
2018-07-02T14:22:04.648Z,985.49
2018-07-02T14:23:10.503Z,985.47
2018-07-02T14:24:17.299Z,985.43
2018-07-02T14:25:25.171Z,985.56
2018-07-02T14:26:31.106Z,985.51
2018-07-02T14:27:38.077Z,985.51
2018-07-02T14:28:44.892Z,985.48
2018-07-02T14:29:51.933Z,985.40
2018-07-02T14:30:58.783Z,985.38
2018-07-02T14:32:05.786Z,985.35
2018-07-02T14:33:12.632Z,985.42
2018-07-02T14:34:19.559Z,985.43
2018-07-02T14:35:26.340Z,985.45
2018-07-02T14:36:36.226Z,985.45
2018-07-02T14:37:42.614Z,985.48
2018-07-02T14:38:48.036Z,985.45
2018-07-02T14:39:53.893Z,985.47
2018-07-02T14:41:00.752Z,985.53
2018-07-02T14:42:12.740Z,985.51
2018-07-02T14:43:14.702Z,985.43
2018-07-02T14:44:21.623Z,985.33
2018-07-02T14:45:28.370Z,985.47
2018-07-02T14:46:35.289Z,985.40